Time;durP1;ratioP1;P1;durP2;ratioP2;P2;SDS_P1;SDS_P2;PMS_P1;PMS_P2;Temp;Humidity;BMP_temperature;BMP_pressure;BME280_temperature;BME280_humidity;BME280_pressure;Samples;Min_cycle;Max_cycle;Signal;HPM_P1;HPM_P2
2023/04/03 00:02:17;;;;;;;3.10;1.45;;;2.10;99.90;;;;;;5048094;28;20033;-91
2023/04/03 00:04:43;;;;;;;1.95;1.27;;;2.00;99.90;;;;;;5003731;28;20163;-91
2023/04/03 00:07:08;;;;;;;2.85;0.90;;;2.00;99.90;;;;;;5006326;28;20049;-91
2023/04/03 00:09:34;;;;;;;2.33;1.00;;;2.00;99.90;;;;;;5003659;28;20083;-91
2023/04/03 00:12:00;;;;;;;2.08;0.90;;;2.00;99.90;;;;;;5003707;28;20037;-91
2023/04/03 00:14:27;;;;;;;1.60;0.88;;;2.00;99.90;;;;;;5007546;28;20033;-91
2023/04/03 00:16:58;;;;;;;0.82;0.73;;;1.90;99.90;;;;;;5004332;28;20037;-91
2023/04/03 00:19:24;;;;;;;1.83;0.85;;;1.90;99.90;;;;;;5019185;28;20038;-92
2023/04/03 00:21:50;;;;;;;2.35;1.00;;;1.90;99.90;;;;;;5020458;28;20044;-91
2023/04/03 00:24:16;;;;;;;2.08;1.00;;;1.90;99.90;;;;;;5002970;28;20041;-91
2023/04/03 00:26:41;;;;;;;2.20;1.38;;;1.90;99.90;;;;;;5003093;28;20045;-91
2023/04/03 00:29:07;;;;;;;2.63;1.10;;;1.90;99.90;;;;;;5028312;28;20030;-91
2023/04/03 00:31:33;;;;;;;2.10;1.23;;;1.80;99.90;;;;;;5005679;28;20037;-91
2023/04/03 00:33:59;;;;;;;3.13;1.05;;;1.80;99.90;;;;;;5044903;28;20038;-92
2023/04/03 00:36:25;;;;;;;2.75;1.20;;;1.80;99.90;;;;;;5017448;28;20072;-91
2023/04/03 00:38:50;;;;;;;3.33;1.15;;;1.80;99.90;;;;;;5001598;28;20132;-90
2023/04/03 00:41:16;;;;;;;3.75;1.38;;;1.70;99.90;;;;;;5001699;28;20045;-91
2023/04/03 00:43:42;;;;;;;3.00;1.20;;;1.70;99.90;;;;;;5004558;28;20084;-91
2023/04/03 00:46:08;;;;;;;2.72;1.23;;;1.70;99.90;;;;;;5002774;28;20045;-91
2023/04/03 00:48:44;;;;;;;1.90;1.00;;;1.70;1.00;;;;;;5003360;28;20037;-91
2023/04/03 00:51:16;;;;;;;3.72;1.20;;;1.60;1.00;;;;;;5004661;28;20046;-91
2023/04/03 00:53:47;;;;;;;;;;;1.60;1.00;;;;;;5008931;28;20037;-91
2023/04/03 00:56:17;;;;;;;3.95;1.40;;;1.60;99.90;;;;;;5007286;28;19917;-91
2023/04/03 00:58:59;;;;;;;2.10;1.30;;;1.50;99.90;;;;;;5007358;28;20130;-91
2023/04/03 01:01:28;;;;;;;4.13;1.60;;;1.50;99.90;;;;;;5002860;28;20049;-91
2023/04/03 01:03:55;;;;;;;2.97;1.30;;;1.50;99.90;;;;;;5009157;28;20398;-92
2023/04/03 01:06:26;;;;;;;3.03;1.30;;;1.50;99.90;;;;;;5023854;28;20525;-91
2023/04/03 01:08:55;;;;;;;4.72;1.40;;;1.40;99.90;;;;;;5007485;28;20033;-91
2023/04/03 01:11:21;;;;;;;2.80;1.70;;;1.40;1.00;;;;;;5022026;28;20116;-91
2023/04/03 01:13:47;;;;;;;4.10;1.33;;;1.40;1.00;;;;;;5009836;28;20136;-92
2023/04/03 01:16:13;;;;;;;3.22;1.52;;;1.30;21.60;;;;;;5008725;28;20779;-91
2023/04/03 01:18:40;;;;;;;3.13;1.55;;;1.30;99.90;;;;;;5006937;28;20125;-91
2023/04/03 01:21:45;;;;;;;2.40;1.30;;;1.30;99.90;;;;;;5007125;28;20485;-91
2023/04/03 01:24:33;;;;;;;2.45;1.50;;;1.30;99.90;;;;;;5012791;28;20043;-91
2023/04/03 01:27:02;;;;;;;2.97;1.17;;;1.30;99.90;;;;;;5006417;28;20116;-91
2023/04/03 01:29:28;;;;;;;7.38;1.25;;;1.20;99.90;;;;;;5023823;28;20033;-91
2023/04/03 01:31:57;;;;;;;3.17;1.60;;;1.20;99.90;;;;;;5012722;28;20046;-91
2023/04/03 01:34:24;;;;;;;3.42;1.45;;;1.20;99.90;;;;;;5023772;28;20056;-91
2023/04/03 01:36:50;;;;;;;2.95;1.50;;;1.10;99.90;;;;;;5007416;28;20056;-91
2023/04/03 01:39:17;;;;;;;3.15;1.50;;;1.10;99.90;;;;;;5006152;28;20041;-92
2023/04/03 01:41:42;;;;;;;3.83;1.58;;;1.10;1.00;;;;;;5005087;28;20144;-91
2023/04/03 01:44:08;;;;;;;3.13;1.55;;;1.10;1.00;;;;;;5029267;28;20122;-91
2023/04/03 01:46:34;;;;;;;3.40;1.50;;;1.00;98.00;;;;;;5004945;28;20033;-91
2023/04/03 01:49:00;;;;;;;2.90;1.40;;;1.00;59.80;;;;;;5026261;28;20038;-91
2023/04/03 01:51:25;;;;;;;3.03;1.40;;;1.00;99.90;;;;;;5008576;28;20105;-91
2023/04/03 01:53:51;;;;;;;4.85;1.70;;;0.90;99.90;;;;;;5020606;28;20068;-90
2023/04/03 01:56:17;;;;;;;2.67;1.50;;;0.90;99.90;;;;;;5028570;28;20096;-90
2023/04/03 01:58:43;;;;;;;2.88;1.42;;;0.90;99.90;;;;;;5006139;28;20501;-90
2023/04/03 02:01:11;;;;;;;3.17;1.60;;;0.80;99.90;;;;;;5019133;28;20039;-91
2023/04/03 02:03:37;;;;;;;5.05;1.90;;;0.80;99.90;;;;;;5004584;28;20096;-90
2023/04/03 02:06:03;;;;;;;2.75;1.60;;;0.80;99.90;;;;;;5006422;28;20033;-90
2023/04/03 02:08:28;;;;;;;5.25;1.80;;;0.80;99.90;;;;;;5019783;28;20060;-90
2023/04/03 02:10:54;;;;;;;3.22;1.63;;;0.80;99.90;;;;;;5015038;28;20061;-89
2023/04/03 02:13:20;;;;;;;3.50;1.67;;;0.70;99.90;;;;;;5002927;28;20037;-90
2023/04/03 02:15:46;;;;;;;3.38;1.35;;;0.70;99.90;;;;;;5003786;28;20128;-89
2023/04/03 02:18:12;;;;;;;4.88;1.80;;;0.70;99.90;;;;;;5020418;28;20048;-90
2023/04/03 02:20:37;;;;;;;3.92;1.50;;;0.60;99.90;;;;;;5007472;28;20578;-89
2023/04/03 02:23:04;;;;;;;5.68;1.83;;;0.60;99.90;;;;;;5002685;28;20128;-90
2023/04/03 02:25:33;;;;;;;4.97;1.70;;;0.60;99.90;;;;;;5005717;28;20040;-90
2023/04/03 02:27:58;;;;;;;5.88;1.80;;;0.50;99.90;;;;;;5006059;28;20048;-91
2023/04/03 02:30:25;;;;;;;3.47;1.85;;;0.50;99.90;;;;;;5005431;28;20561;-89
2023/04/03 02:32:50;;;;;;;6.10;1.58;;;0.50;99.90;;;;;;5005582;28;20041;-90
2023/04/03 02:35:16;;;;;;;5.68;1.90;;;0.40;99.90;;;;;;5047981;28;20104;-90
2023/04/03 02:37:42;;;;;;;3.38;1.70;;;0.40;99.90;;;;;;5000805;28;20057;-89
2023/04/03 02:40:08;;;;;;;4.65;1.50;;;0.40;99.90;;;;;;5002762;28;20040;-89
2023/04/03 02:42:34;;;;;;;6.63;1.95;;;0.40;99.90;;;;;;5005064;28;20042;-89
2023/04/03 02:45:02;;;;;;;5.25;1.92;;;0.30;99.90;;;;;;5019064;28;20124;-90
2023/04/03 02:47:28;;;;;;;4.80;1.80;;;0.30;99.90;;;;;;5033150;28;20061;-90
2023/04/03 02:49:54;;;;;;;7.28;1.80;;;0.30;99.90;;;;;;5019985;28;20077;-89
2023/04/03 02:52:25;;;;;;;4.18;1.80;;;0.20;99.90;;;;;;5004749;28;20076;-89
2023/04/03 02:54:51;;;;;;;6.00;1.90;;;0.20;99.90;;;;;;5029964;28;20466;-89
2023/04/03 02:57:16;;;;;;;3.05;1.75;;;0.20;99.90;;;;;;5001286;28;20056;-90
2023/04/03 02:59:42;;;;;;;4.40;1.90;;;0.10;99.90;;;;;;5001570;28;20649;-91
2023/04/03 03:02:09;;;;;;;5.55;2.22;;;0.20;99.90;;;;;;5019028;28;20171;-89
2023/04/03 03:04:35;;;;;;;4.57;2.03;;;0.10;99.90;;;;;;5021411;28;20514;-90
2023/04/03 03:07:01;;;;;;;5.88;2.20;;;0.10;99.90;;;;;;5003517;28;20048;-90
2023/04/03 03:09:27;;;;;;;3.65;2.03;;;0.00;99.90;;;;;;5005035;28;20110;-90
2023/04/03 03:11:53;;;;;;;3.72;2.00;;;0.00;99.90;;;;;;5003196;28;20048;-91
2023/04/03 03:14:19;;;;;;;3.88;2.08;;;-0.10;99.90;;;;;;5030868;28;20117;-91
2023/04/03 03:16:45;;;;;;;5.50;2.15;;;0.00;99.90;;;;;;5006803;28;20109;-90
2023/04/03 03:19:10;;;;;;;4.40;2.13;;;0.00;99.90;;;;;;5029434;28;20370;-90
2023/04/03 03:21:37;;;;;;;5.40;2.30;;;0.00;99.90;;;;;;5003668;28;20048;-91
2023/04/03 03:24:02;;;;;;;5.03;2.05;;;-0.10;99.90;;;;;;5000834;28;20057;-91
2023/04/03 03:26:32;;;;;;;5.30;2.08;;;-0.10;99.90;;;;;;4997601;28;20160;-91
2023/04/03 03:28:57;;;;;;;5.00;2.38;;;-0.20;99.90;;;;;;5042734;28;20466;-91
2023/04/03 03:31:23;;;;;;;8.05;2.55;;;-0.20;99.90;;;;;;5020125;28;20044;-91
2023/04/03 03:33:49;;;;;;;5.50;2.47;;;-0.20;99.90;;;;;;5005783;28;20406;-92
2023/04/03 03:36:15;;;;;;;4.85;2.40;;;-0.30;99.90;;;;;;5018780;28;20068;-91
2023/04/03 03:38:41;;;;;;;5.57;2.42;;;-0.30;99.90;;;;;;5004098;28;20069;-91
2023/04/03 03:41:06;;;;;;;6.80;2.60;;;-0.30;99.90;;;;;;5003898;28;20033;-94
2023/04/03 03:43:32;;;;;;;5.63;2.10;;;-0.40;99.90;;;;;;5004623;28;20438;-91
2023/04/03 03:45:58;;;;;;;5.60;2.40;;;-0.40;99.90;;;;;;5043330;28;20040;-93
2023/04/03 03:48:23;;;;;;;6.65;2.70;;;-0.50;99.90;;;;;;5005822;28;20137;-92
2023/04/03 03:50:49;;;;;;;4.43;2.45;;;-0.40;99.90;;;;;;5033946;28;20042;-92
2023/04/03 03:53:15;;;;;;;5.82;2.38;;;-0.40;99.90;;;;;;5003720;28;20537;-92
2023/04/03 03:55:41;;;;;;;6.55;3.33;;;-0.50;99.90;;;;;;5018834;28;20076;-91
2023/04/03 03:58:07;;;;;;;6.07;2.70;;;-0.50;99.90;;;;;;5004079;28;20306;-91
2023/04/03 04:00:33;;;;;;;6.50;3.28;;;-0.50;99.90;;;;;;5003742;28;20041;-91
2023/04/03 04:02:58;;;;;;;7.28;2.75;;;-0.50;99.90;;;;;;5004095;28;20560;-93
2023/04/03 04:05:24;;;;;;;6.10;2.78;;;-0.50;99.90;;;;;;5003587;28;20566;-91
2023/04/03 04:07:50;;;;;;;4.60;2.60;;;-0.40;99.90;;;;;;5017032;28;20033;-90
2023/04/03 04:10:16;;;;;;;5.18;2.45;;;-0.50;99.90;;;;;;5004078;28;20049;-90
2023/04/03 04:12:42;;;;;;;7.97;2.70;;;-0.40;99.90;;;;;;5047191;28;20087;-90
2023/04/03 04:15:08;;;;;;;6.88;2.80;;;-0.40;99.90;;;;;;5005242;28;20100;-91
2023/04/03 04:17:35;;;;;;;9.07;2.63;;;-0.50;99.90;;;;;;5002746;28;20499;-91
2023/04/03 04:20:02;;;;;;;4.90;2.30;;;-0.50;99.90;;;;;;5003836;28;20037;-91
2023/04/03 04:22:28;;;;;;;5.30;2.17;;;-0.40;99.90;;;;;;5002223;28;20096;-90
2023/04/03 04:24:57;;;;;;;5.50;2.45;;;-0.50;99.90;;;;;;5002927;28;20053;-91
2023/04/03 04:27:22;;;;;;;5.25;2.53;;;-0.50;99.90;;;;;;5005346;28;20099;-90
2023/04/03 04:29:48;;;;;;;6.43;2.67;;;-0.40;99.90;;;;;;5019369;28;20060;-90
2023/04/03 04:32:14;;;;;;;5.85;2.67;;;-0.40;99.90;;;;;;5003901;28;20045;-88
2023/04/03 04:34:39;;;;;;;4.63;2.53;;;-0.50;99.90;;;;;;5004242;28;20064;-90
2023/04/03 04:37:05;;;;;;;6.40;2.80;;;-0.50;99.90;;;;;;5002914;28;20123;-91
2023/04/03 04:39:31;;;;;;;5.28;2.42;;;-0.50;99.90;;;;;;5001999;28;20124;-91
2023/04/03 04:41:59;;;;;;;6.18;2.42;;;-0.60;99.90;;;;;;5002636;28;20675;-89
2023/04/03 04:44:25;;;;;;;7.93;3.50;;;-0.50;99.90;;;;;;5000751;28;20045;-91
2023/04/03 04:46:51;;;;;;;6.03;2.90;;;-0.60;99.90;;;;;;5019355;28;20042;-90
2023/04/03 04:49:16;;;;;;;6.63;3.05;;;-0.60;99.90;;;;;;5000242;28;20231;-91
2023/04/03 04:51:42;;;;;;;6.03;2.80;;;-0.60;99.90;;;;;;5031988;28;20164;-91
2023/04/03 04:54:08;;;;;;;5.43;2.53;;;-0.60;99.90;;;;;;5006159;28;20984;-91
2023/04/03 04:56:33;;;;;;;7.13;2.60;;;-0.60;99.90;;;;;;5003671;28;20065;-92
2023/04/03 04:58:59;;;;;;;7.43;2.92;;;-0.60;99.90;;;;;;5021355;28;20049;-91
2023/04/03 05:01:28;;;;;;;7.88;3.35;;;-0.60;99.90;;;;;;5004596;28;20044;-91
2023/04/03 05:03:54;;;;;;;6.82;2.42;;;-0.60;99.90;;;;;;5002090;28;20083;-90
2023/04/03 05:06:20;;;;;;;6.05;2.90;;;-0.60;99.90;;;;;;5002285;28;20033;-90
2023/04/03 05:08:46;;;;;;;4.75;2.88;;;-0.60;99.90;;;;;;5042902;28;20078;-91
2023/04/03 05:11:11;;;;;;;6.90;2.88;;;-0.60;99.90;;;;;;5001068;28;20099;-91
2023/04/03 05:13:37;;;;;;;7.43;2.58;;;-0.60;99.90;;;;;;5001868;28;20042;-90
2023/04/03 05:16:03;;;;;;;7.70;2.60;;;-0.60;99.90;;;;;;5018940;28;20037;-91
2023/04/03 05:18:32;;;;;;;8.52;3.60;;;-0.70;99.90;;;;;;5019949;28;20088;-89
2023/04/03 05:20:58;;;;;;;13.27;3.47;;;-0.60;99.90;;;;;;4999791;28;20056;-90
2023/04/03 05:23:27;;;;;;;6.35;3.28;;;-0.60;99.90;;;;;;5028005;28;20073;-90
2023/04/03 05:25:53;;;;;;;7.32;2.95;;;-0.60;99.90;;;;;;5001701;28;20510;-91
2023/04/03 05:28:19;;;;;;;6.00;2.90;;;-0.60;99.90;;;;;;5002633;28;20045;-91
2023/04/03 05:30:47;;;;;;;10.90;3.20;;;-0.60;99.90;;;;;;5004132;28;20127;-91
2023/04/03 05:33:13;;;;;;;5.55;3.00;;;-0.50;99.90;;;;;;5002772;28;20034;-92
2023/04/03 05:35:41;;;;;;;7.95;3.85;;;-0.50;99.90;;;;;;5002979;28;20044;-90
2023/04/03 05:38:07;;;;;;;4.78;3.53;;;-0.40;99.90;;;;;;5007254;28;20052;-89
2023/04/03 05:40:32;;;;;;;5.18;3.42;;;-0.40;99.90;;;;;;5007005;28;20017;-90
2023/04/03 05:42:58;;;;;;;7.32;3.90;;;-0.30;99.90;;;;;;5048097;28;20079;-90
2023/04/03 05:45:24;;;;;;;6.82;3.72;;;-0.30;99.90;;;;;;5018986;28;20316;-90
2023/04/03 05:47:49;;;;;;;9.00;3.88;;;-0.30;99.90;;;;;;5005600;28;20056;-91
2023/04/03 05:50:15;;;;;;;8.55;3.35;;;-0.20;99.90;;;;;;5030876;28;20190;-90
2023/04/03 05:52:45;;;;;;;8.70;3.88;;;0.00;99.90;;;;;;5005010;28;20078;-90
2023/04/03 05:55:11;;;;;;;9.15;3.35;;;0.00;99.90;;;;;;5022042;28;20045;-91
2023/04/03 05:57:36;;;;;;;10.90;3.72;;;0.10;99.90;;;;;;5021933;28;20095;-91
2023/04/03 06:00:08;;;;;;;11.60;3.63;;;0.20;99.90;;;;;;5019559;28;20402;-90
2023/04/03 06:02:34;;;;;;;8.55;3.80;;;0.30;99.90;;;;;;5020807;28;20043;-91
2023/04/03 06:04:59;;;;;;;7.15;3.63;;;0.30;99.90;;;;;;5046478;28;20120;-89
2023/04/03 06:07:28;;;;;;;8.30;3.63;;;0.40;99.90;;;;;;5005532;28;20041;-91
2023/04/03 06:09:55;;;;;;;8.43;3.47;;;0.50;99.90;;;;;;5005213;28;20061;-91
2023/04/03 06:12:24;;;;;;;8.20;3.92;;;0.50;99.90;;;;;;5005495;28;20048;-90
2023/04/03 06:14:50;;;;;;;6.55;3.60;;;0.60;99.90;;;;;;5004141;28;20045;-91
2023/04/03 06:17:17;;;;;;;7.75;3.45;;;0.70;99.90;;;;;;5005563;28;20048;-91
2023/04/03 06:19:44;;;;;;;9.32;3.70;;;0.80;99.90;;;;;;5005209;28;20360;-90
2023/04/03 06:22:11;;;;;;;9.40;3.58;;;0.90;99.90;;;;;;5004284;28;20038;-92
2023/04/03 06:24:40;;;;;;;6.18;3.15;;;0.90;99.90;;;;;;5020606;28;20044;-90
2023/04/03 06:27:06;;;;;;;6.35;3.10;;;0.90;99.90;;;;;;5007126;28;20079;-90
2023/04/03 06:29:31;;;;;;;11.07;3.38;;;1.00;99.90;;;;;;5006464;28;20068;-90
2023/04/03 06:31:57;;;;;;;6.15;2.85;;;1.10;99.90;;;;;;5022122;28;20128;-91
2023/04/03 06:34:23;;;;;;;7.05;3.28;;;1.20;99.90;;;;;;5023039;28;20030;-92
2023/04/03 06:36:50;;;;;;;6.40;3.05;;;1.20;99.90;;;;;;5006185;28;20584;-90
2023/04/03 06:39:20;;;;;;;9.27;3.17;;;1.30;99.90;;;;;;5007315;28;20047;-91
2023/04/03 06:41:46;;;;;;;7.80;3.40;;;1.40;99.90;;;;;;5010068;28;20045;-92
2023/04/03 06:44:13;;;;;;;9.20;3.17;;;1.50;99.90;;;;;;5010304;28;20033;-91
2023/04/03 06:46:39;;;;;;;8.32;3.17;;;1.50;99.90;;;;;;5007768;28;20775;-91
2023/04/03 06:49:07;;;;;;;5.85;2.95;;;1.60;99.90;;;;;;5002437;28;20037;-90
2023/04/03 06:51:37;;;;;;;6.05;3.08;;;1.70;99.90;;;;;;5019222;28;20091;-90
2023/04/03 06:54:05;;;;;;;8.85;3.28;;;1.70;99.90;;;;;;5003912;28;20029;-92
2023/04/03 06:56:31;;;;;;;7.40;3.17;;;1.80;99.90;;;;;;5004358;28;20084;-92
2023/04/03 06:58:57;;;;;;;7.50;3.22;;;1.90;99.90;;;;;;5000463;28;20041;-91
2023/04/03 07:01:26;;;;;;;6.47;3.17;;;2.00;99.90;;;;;;5007998;28;20037;-91
2023/04/03 07:03:52;;;;;;;7.05;3.15;;;2.10;99.90;;;;;;5027244;28;20125;-92
2023/04/03 07:06:19;;;;;;;9.10;3.20;;;2.10;99.90;;;;;;5003330;28;20526;-91
2023/04/03 07:08:46;;;;;;;10.35;3.35;;;2.20;99.90;;;;;;5005844;28;20410;-90
2023/04/03 07:11:12;;;;;;;6.40;2.70;;;2.30;99.90;;;;;;5002338;28;20485;-91
2023/04/03 07:13:38;;;;;;;6.75;3.42;;;2.40;99.90;;;;;;5005156;28;20084;-90
2023/04/03 07:16:08;;;;;;;9.23;3.70;;;2.50;99.90;;;;;;5001291;28;20068;-91
2023/04/03 07:18:37;;;;;;;6.60;3.10;;;2.50;99.90;;;;;;5002598;28;20041;-92
2023/04/03 07:21:04;;;;;;;8.32;3.03;;;2.60;99.90;;;;;;5035816;28;20036;-92
2023/04/03 07:23:29;;;;;;;6.63;3.13;;;2.70;99.90;;;;;;5003991;28;20244;-91
2023/04/03 07:25:56;;;;;;;8.85;2.78;;;2.80;99.90;;;;;;5047347;28;20195;-94
2023/04/03 07:28:23;;;;;;;7.63;3.35;;;2.80;99.90;;;;;;5005264;28;20251;-91
2023/04/03 07:31:00;;;;;;;9.30;3.35;;;2.80;99.90;;;;;;5020410;28;20102;-92
2023/04/03 07:33:26;;;;;;;6.22;2.97;;;2.90;99.90;;;;;;5004129;28;20044;-93
2023/04/03 07:35:52;;;;;;;4.82;2.55;;;3.00;99.90;;;;;;5002889;28;20495;-90
2023/04/03 07:38:18;;;;;;;7.60;2.58;;;3.10;99.90;;;;;;5003649;28;20057;-92
2023/04/03 07:40:49;;;;;;;7.53;2.50;;;3.10;99.90;;;;;;5024863;28;20036;-90
2023/04/03 07:43:17;;;;;;;6.60;2.72;;;3.20;99.90;;;;;;5002372;28;20144;-91
2023/04/03 07:45:43;;;;;;;10.10;2.88;;;3.30;99.90;;;;;;5014766;28;20524;-92
2023/04/03 07:48:11;;;;;;;9.68;3.28;;;3.40;99.90;;;;;;5027595;28;20500;-92
2023/04/03 07:50:39;;;;;;;5.78;2.80;;;3.40;99.90;;;;;;5001475;28;20053;-91
2023/04/03 07:53:05;;;;;;;6.05;2.10;;;3.60;99.90;;;;;;5027411;28;20045;-92
2023/04/03 07:55:32;;;;;;;7.70;3.00;;;3.70;1.00;;;;;;5003393;28;20129;-90
2023/04/03 07:58:01;;;;;;;5.53;2.45;;;3.80;99.90;;;;;;5000552;28;20066;-90
2023/04/03 08:00:27;;;;;;;5.45;2.30;;;3.90;99.90;;;;;;5003020;28;20037;-89
2023/04/03 08:02:53;;;;;;;6.32;2.53;;;3.90;99.90;;;;;;5003370;28;20495;-90
2023/04/03 08:05:20;;;;;;;6.90;2.00;;;3.90;99.90;;;;;;5001408;28;20053;-90
2023/04/03 08:07:46;;;;;;;6.43;2.53;;;4.00;65.70;;;;;;5001412;28;20134;-90
2023/04/03 08:10:15;;;;;;;5.70;2.20;;;4.10;33.80;;;;;;5001576;28;20030;-90
2023/04/03 08:12:41;;;;;;;4.70;1.95;;;4.20;23.60;;;;;;4998700;28;20180;-91
2023/04/03 08:15:08;;;;;;;6.25;2.50;;;4.30;1.00;;;;;;5020758;28;20475;-89
2023/04/03 08:17:36;;;;;;;5.85;2.67;;;4.40;99.90;;;;;;5003604;28;20077;-90
2023/04/03 08:20:07;;;;;;;4.40;2.38;;;4.40;1.00;;;;;;5002216;28;20148;-90
2023/04/03 08:22:35;;;;;;;7.03;2.67;;;4.60;99.90;;;;;;5026996;28;20033;-90
2023/04/03 08:25:01;;;;;;;7.15;2.97;;;4.70;96.60;;;;;;5018219;28;20560;-90
2023/04/03 08:27:28;;;;;;;8.52;2.50;;;4.70;1.00;;;;;;5041556;28;20152;-90
2023/04/03 08:29:54;;;;;;;7.05;2.47;;;4.70;73.40;;;;;;5006341;28;20057;-90
2023/04/03 08:32:20;;;;;;;7.55;2.30;;;4.80;99.90;;;;;;5003105;28;20041;-90
2023/04/03 08:34:46;;;;;;;2.92;2.17;;;5.00;99.90;;;;;;5001578;28;20056;-90
2023/04/03 08:37:12;;;;;;;4.60;2.40;;;5.00;99.90;;;;;;5003610;28;20046;-91
2023/04/03 08:39:38;;;;;;;5.43;2.35;;;5.00;1.00;;;;;;5030869;28;20160;-91
2023/04/03 08:42:13;;;;;;;6.07;2.17;;;5.20;1.00;;;;;;5001001;28;20136;-90
2023/04/03 08:44:42;;;;;;;6.30;2.40;;;5.40;71.00;;;;;;5002736;28;20034;-90
2023/04/03 08:47:25;;;;;;;3.95;2.00;;;5.40;1.00;;;;;;5002515;28;20136;-90
2023/04/03 08:49:51;;;;;;;5.75;2.05;;;5.50;99.90;;;;;;4999963;28;20068;-90
2023/04/03 08:52:48;;;;;;;5.68;2.20;;;5.50;99.90;;;;;;5003122;28;20124;-91
2023/04/03 08:55:27;;;;;;;4.47;1.98;;;5.80;1.00;;;;;;5013769;28;20049;-90
2023/04/03 08:58:11;;;;;;;4.57;1.80;;;5.80;99.90;;;;;;5015092;28;20314;-91
2023/04/03 09:00:49;;;;;;;6.18;2.00;;;5.90;1.00;;;;;;5019698;28;20368;-90
2023/04/03 09:03:17;;;;;;;4.53;1.90;;;6.00;30.50;;;;;;5004386;28;20033;-90
2023/04/03 09:06:04;;;;;;;3.92;1.90;;;6.10;99.90;;;;;;5000785;28;20092;-91
2023/04/03 09:08:40;;;;;;;3.95;1.85;;;6.20;99.90;;;;;;5046344;28;20537;-90
2023/04/03 09:11:35;;;;;;;4.53;2.10;;;6.40;99.90;;;;;;4999700;28;20113;-90
2023/04/03 09:14:34;;;;;;;4.15;1.90;;;6.50;99.90;;;;;;5006220;28;20908;-90
2023/04/03 09:17:11;;;;;;;4.03;1.88;;;6.60;99.90;;;;;;5002945;28;20495;-91
2023/04/03 09:20:09;;;;;;;5.50;2.00;;;6.60;99.90;;;;;;5050636;28;20385;-90
2023/04/03 09:22:38;;;;;;;4.88;2.00;;;6.80;99.90;;;;;;4999123;28;20041;-91
2023/04/03 09:25:13;;;;;;;5.47;2.00;;;6.80;99.90;;;;;;5022551;28;20080;-90
2023/04/03 09:27:39;;;;;;;4.85;1.60;;;6.90;1.00;;;;;;5031595;28;20033;-91
2023/04/03 09:30:06;;;;;;;4.47;1.67;;;7.00;72.90;;;;;;5006674;28;20801;-90
2023/04/03 09:32:34;;;;;;;4.13;1.90;;;7.20;1.00;;;;;;5006954;28;20170;-91
2023/04/03 09:35:27;;;;;;;4.05;2.10;;;7.30;1.00;;;;;;5023758;28;20478;-91
2023/04/03 09:38:09;;;;;;;4.43;1.65;;;7.40;1.00;;;;;;5022516;28;20081;-90
2023/04/03 09:40:38;;;;;;;2.17;1.35;;;7.40;1.00;;;;;;5006114;28;20092;-90
2023/04/03 09:43:27;;;;;;;3.53;1.55;;;7.50;99.90;;;;;;5020637;28;20806;-90
2023/04/03 09:45:53;;;;;;;3.58;1.40;;;7.60;99.90;;;;;;5006401;28;20045;-90
2023/04/03 09:48:24;;;;;;;3.63;1.35;;;7.70;99.90;;;;;;5005983;28;20029;-89
2023/04/03 09:50:50;;;;;;;3.05;1.40;;;7.80;99.90;;;;;;5036157;28;20037;-89
2023/04/03 09:53:45;;;;;;;2.65;1.15;;;7.90;99.90;;;;;;5005948;28;20041;-89
2023/04/03 09:56:17;;;;;;;1.63;1.00;;;7.90;99.90;;;;;;5006396;28;20056;-89
2023/04/03 09:59:03;;;;;;;1.88;1.08;;;8.00;99.90;;;;;;5020821;28;20049;-90
2023/04/03 10:01:34;;;;;;;2.47;1.20;;;8.20;99.90;;;;;;5009085;28;20042;-90
2023/04/03 10:04:10;;;;;;;2.90;1.20;;;8.30;99.90;;;;;;5007797;28;20061;-90
2023/04/03 10:06:46;;;;;;;3.95;1.30;;;8.30;99.90;;;;;;5035681;28;20171;-89
2023/04/03 10:09:23;;;;;;;2.17;1.33;;;8.40;99.90;;;;;;5002921;28;20881;-89
2023/04/03 10:12:12;;;;;;;4.05;1.83;;;8.50;99.90;;;;;;5036243;28;20125;-90
2023/04/03 10:14:40;;;;;;;2.17;1.17;;;8.60;99.90;;;;;;5010864;28;20038;-90
2023/04/03 10:17:51;;;;;;;2.55;1.25;;;8.50;99.90;;;;;;5019324;28;20041;-89
2023/04/03 10:20:46;;;;;;;2.60;1.27;;;8.60;99.90;;;;;;5021815;28;20040;-89
2023/04/03 10:23:40;;;;;;;1.88;0.93;;;8.70;97.40;;;;;;5006256;28;20038;-89
2023/04/03 10:26:11;;;;;;;3.17;1.20;;;8.80;93.40;;;;;;5020806;28;20485;-89
2023/04/03 10:28:56;;;;;;;1.83;1.17;;;8.80;88.80;;;;;;5020862;28;20052;-89
2023/04/03 10:31:33;;;;;;;1.88;1.27;;;8.90;95.50;;;;;;5006332;28;20034;-89
2023/04/03 10:34:10;;;;;;;1.83;1.17;;;8.90;55.80;;;;;;5033993;28;20628;-89
2023/04/03 10:37:01;;;;;;;2.45;1.20;;;8.90;14.00;;;;;;5003767;28;20138;-89
2023/04/03 10:39:39;;;;;;;3.35;1.10;;;8.90;6.90;;;;;;5006821;28;20057;-89
2023/04/03 10:42:19;;;;;;;2.13;1.10;;;8.90;1.00;;;;;;5018773;28;20521;-89
2023/04/03 10:45:04;;;;;;;3.35;1.00;;;9.10;3.20;;;;;;5005054;28;20034;-89
2023/04/03 10:47:34;;;;;;;;;;;9.00;1.00;;;;;;5021310;28;20033;-89
2023/04/03 10:50:25;;;;;;;3.88;1.20;;;9.30;10.10;;;;;;5036882;28;19925;-89
2023/04/03 10:53:07;;;;;;;2.05;1.10;;;9.40;1.00;;;;;;5018912;28;20037;-89
2023/04/03 10:55:39;;;;;;;2.70;1.30;;;9.30;1.00;;;;;;5020945;28;20164;-90
2023/04/03 10:58:07;;;;;;;2.55;1.17;;;9.30;1.00;;;;;;5019839;28;20113;-90
2023/04/03 11:00:46;;;;;;;3.20;1.13;;;9.40;1.00;;;;;;5005344;28;20069;-90
2023/04/03 11:03:26;;;;;;;2.38;1.13;;;9.60;1.00;;;;;;5006671;28;20127;-89
2023/04/03 11:05:55;;;;;;;2.22;0.82;;;9.50;1.00;;;;;;5004358;28;20099;-90
2023/04/03 11:08:31;;;;;;;3.40;1.48;;;9.80;1.00;;;;;;5018458;28;20147;-89
2023/04/03 11:11:27;;;;;;;4.07;1.20;;;9.80;1.00;;;;;;5005196;28;20146;-90
2023/04/03 11:13:56;;;;;;;3.60;1.40;;;9.80;1.00;;;;;;4969904;28;20064;-89
2023/04/03 11:16:29;;;;;;;4.53;1.00;;;10.00;1.00;;;;;;5016970;28;20114;-89
2023/04/03 11:19:04;;;;;;;1.80;0.90;;;9.90;1.00;;;;;;5004089;28;20195;-90
2023/04/03 11:21:40;;;;;;;2.35;1.08;;;10.30;1.00;;;;;;5001607;28;20064;-88
2023/04/03 11:24:17;;;;;;;2.42;0.93;;;10.10;1.00;;;;;;5018365;28;20068;-89
2023/04/03 11:26:45;;;;;;;2.78;1.10;;;10.40;1.00;;;;;;5017804;28;20045;-90
2023/04/03 11:29:18;;;;;;;1.50;0.90;;;10.40;1.00;;;;;;5004166;28;20076;-90
2023/04/03 11:32:13;;;;;;;2.42;1.00;;;10.20;1.00;;;;;;5004882;28;20095;-89
2023/04/03 11:34:44;;;;;;;0.83;0.70;;;10.20;1.00;;;;;;5020672;28;20064;-89
2023/04/03 11:37:17;;;;;;;2.38;1.10;;;10.50;1.00;;;;;;5002448;28;20370;-89
2023/04/03 11:39:59;;;;;;;3.53;1.58;;;10.30;99.90;;;;;;5000037;28;20046;-89
2023/04/03 11:42:26;;;;;;;1.42;0.88;;;10.50;99.90;;;;;;5004592;28;20434;-88
2023/04/03 11:45:26;;;;;;;2.92;1.23;;;10.40;99.90;;;;;;5004452;28;20840;-88
2023/04/03 11:48:22;;;;;;;5.97;1.50;;;10.60;99.90;;;;;;5001594;28;20045;-89
2023/04/03 11:50:48;;;;;;;2.45;1.17;;;10.90;99.90;;;;;;4996165;28;20041;-88
2023/04/03 11:53:14;;;;;;;2.90;1.17;;;11.00;99.90;;;;;;5005115;28;20045;-89
2023/04/03 11:55:53;;;;;;;3.70;1.27;;;10.90;99.90;;;;;;5018230;28;20433;-89
2023/04/03 11:58:34;;;;;;;2.50;1.23;;;10.90;99.90;;;;;;5003999;28;20033;-88
2023/04/03 12:01:01;;;;;;;1.50;1.10;;;11.10;99.90;;;;;;5043006;28;20116;-89
2023/04/03 12:03:52;;;;;;;2.65;1.00;;;11.30;99.90;;;;;;5018507;28;20092;-89
2023/04/03 12:06:18;;;;;;;2.28;1.30;;;11.50;1.00;;;;;;5005493;28;20410;-90
2023/04/03 12:08:53;;;;;;;2.63;1.30;;;11.40;99.90;;;;;;5005494;28;20037;-89
2023/04/03 12:11:33;;;;;;;3.10;1.42;;;11.40;99.90;;;;;;5002718;28;20057;-90
2023/04/03 12:13:59;;;;;;;2.55;1.33;;;11.30;99.90;;;;;;5003457;28;20380;-90
2023/04/03 12:16:43;;;;;;;1.67;1.00;;;11.50;99.90;;;;;;5003212;28;20051;-89
2023/04/03 12:19:16;;;;;;;3.15;1.15;;;11.60;99.90;;;;;;4998738;28;20060;-89
2023/04/03 12:21:46;;;;;;;1.83;1.00;;;11.70;99.90;;;;;;5028419;28;20164;-88
2023/04/03 12:24:20;;;;;;;2.17;1.20;;;11.80;99.90;;;;;;5005182;28;20037;-90
2023/04/03 12:27:05;;;;;;;;;;;11.80;99.90;;;;;;5017089;28;20353;-89
2023/04/03 12:29:38;;;;;;;4.13;1.40;;;12.10;99.90;;;;;;5003662;28;20028;-89
2023/04/03 12:32:36;;;;;;;2.70;1.23;;;12.00;99.90;;;;;;5029009;28;20113;-90
2023/04/03 12:35:17;;;;;;;1.60;0.98;;;11.30;99.90;;;;;;5003175;28;20042;-91
2023/04/03 12:38:01;;;;;;;2.33;1.10;;;11.60;99.90;;;;;;5002638;28;20088;-89
2023/04/03 12:40:42;;;;;;;3.20;1.35;;;11.90;99.90;;;;;;5001135;28;20499;-90
2023/04/03 12:43:45;;;;;;;5.60;1.77;;;11.90;99.90;;;;;;5030011;28;20061;-89
2023/04/03 12:46:20;;;;;;;3.92;1.25;;;12.00;99.90;;;;;;5003154;28;20038;-90
2023/04/03 12:48:59;;;;;;;2.78;1.40;;;12.00;99.90;;;;;;5020610;28;20272;-89
2023/04/03 12:51:36;;;;;;;2.17;1.17;;;12.10;99.90;;;;;;5007082;28;20131;-90
2023/04/03 12:54:13;;;;;;;3.50;1.30;;;12.00;99.90;;;;;;5004865;28;20073;-89
2023/04/03 12:56:39;;;;;;;2.90;1.27;;;12.30;99.90;;;;;;5020955;28;20049;-90
2023/04/03 12:59:16;;;;;;;2.80;1.30;;;12.30;99.90;;;;;;5022211;28;20047;-90
2023/04/03 13:01:44;;;;;;;4.22;1.30;;;10.50;99.90;;;;;;5031864;28;20042;-89
2023/04/03 13:04:12;;;;;;;3.17;1.38;;;11.70;99.90;;;;;;5006985;28;20349;-89
2023/04/03 13:06:40;;;;;;;3.85;1.50;;;12.20;99.90;;;;;;5024660;28;20382;-90
2023/04/03 13:09:17;;;;;;;3.15;1.50;;;12.00;99.90;;;;;;5007673;28;20045;-90
2023/04/03 13:11:46;;;;;;;3.35;1.48;;;12.40;99.90;;;;;;5024158;28;20081;-90
2023/04/03 13:14:17;;;;;;;3.10;1.20;;;12.70;99.90;;;;;;5020579;28;20041;-89